createdAt,value
2018-11-21T00:01:58.203Z,100457.25
2018-11-21T00:04:28.595Z,100454.71
2018-11-21T00:06:59.645Z,100448.73
2018-11-21T00:09:29.266Z,100447.84
2018-11-21T00:11:58.677Z,100436.77
2018-11-21T00:14:28.098Z,100435.98
2018-11-21T00:16:58.535Z,100441.95
2018-11-21T00:19:28.281Z,100445.38
2018-11-21T00:21:57.687Z,100435.66
2018-11-21T00:24:27.484Z,100435.62
2018-11-21T00:26:57.158Z,100430.91
2018-11-21T00:29:27.012Z,100431.36
2018-11-21T00:31:56.494Z,100439.05
2018-11-21T00:34:25.903Z,100436.44
2018-11-21T00:36:55.646Z,100429.68
2018-11-21T00:39:25.062Z,100428.36
2018-11-21T00:41:55.765Z,100435.58
2018-11-21T00:44:25.191Z,100443.41
2018-11-21T00:46:54.965Z,100454.16
2018-11-21T00:49:24.687Z,100444.77
2018-11-21T00:52:02.660Z,100442.66
2018-11-21T00:54:31.983Z,100450.77
2018-11-21T00:57:01.418Z,100461.06
2018-11-21T00:59:30.845Z,100456.77
2018-11-21T01:02:00.245Z,100462.31
2018-11-21T01:04:29.906Z,100460.70
2018-11-21T01:06:59.333Z,100464.59
2018-11-21T01:09:29.088Z,100455.98
2018-11-21T01:11:58.501Z,100455.61
2018-11-21T01:14:28.240Z,100465.02
2018-11-21T01:16:57.711Z,100463.73
2018-11-21T01:19:28.104Z,100467.22
2018-11-21T01:21:58.222Z,100480.55
2018-11-21T01:24:28.054Z,100482.23
2018-11-21T01:26:58.746Z,100474.17
2018-11-21T01:29:28.183Z,100487.03
2018-11-21T01:31:58.017Z,100496.41
2018-11-21T01:34:28.055Z,100492.15
2018-11-21T01:36:57.504Z,100485.72
2018-11-21T01:39:27.282Z,100492.52
2018-11-21T01:41:57.108Z,100489.09
2018-11-21T01:44:26.556Z,100497.23
2018-11-21T01:46:57.780Z,100499.84
2018-11-21T01:49:27.112Z,100499.44
2018-11-21T01:51:58.336Z,100511.02
2018-11-21T01:54:27.768Z,100513.61
2018-11-21T01:56:57.446Z,100511.87
2018-11-21T01:59:28.106Z,100513.61
2018-11-21T02:01:57.491Z,100516.98
2018-11-21T02:04:26.869Z,100511.84
2018-11-21T02:06:56.438Z,100514.84
2018-11-21T02:09:26.123Z,100520.81
2018-11-21T02:11:57.455Z,100522.13
2018-11-21T02:14:26.860Z,100523.39
2018-11-21T02:16:56.363Z,100520.44
2018-11-21T02:19:25.773Z,100518.27
2018-11-21T02:21:55.502Z,100507.64
2018-11-21T02:24:31.937Z,100501.69
2018-11-21T02:27:04.878Z,100503.80
2018-11-21T02:29:35.814Z,100509.30
2018-11-21T02:34:48.556Z,100509.21
2018-11-21T02:37:18.359Z,100510.55
2018-11-21T02:39:49.066Z,100506.33
2018-11-21T02:42:18.528Z,100507.53
2018-11-21T02:44:47.900Z,100516.09
2018-11-21T02:47:17.621Z,100510.98
2018-11-21T02:49:47.017Z,100524.25
2018-11-21T02:52:17.257Z,100522.19
2018-11-21T02:54:48.626Z,100532.48
2018-11-21T02:57:27.991Z,100517.95
2018-11-21T03:00:22.366Z,100517.88
2018-11-21T03:02:51.844Z,100514.44
2018-11-21T03:05:25.624Z,100517.50
2018-11-21T03:07:56.420Z,100524.30
2018-11-21T03:10:26.416Z,100530.33
2018-11-21T03:12:56.276Z,100531.62
2018-11-21T03:15:26.046Z,100539.39
2018-11-21T03:17:55.531Z,100550.53
2018-11-21T03:20:24.910Z,100556.48
2018-11-21T03:22:54.528Z,100565.89
2018-11-21T03:25:24.690Z,100575.75
2018-11-21T03:27:54.514Z,100569.75
2018-11-21T03:30:25.755Z,100571.89
2018-11-21T03:32:53.384Z,100562.03
2018-11-21T03:35:23.844Z,100559.45
2018-11-21T03:37:53.694Z,100565.09
2018-11-21T03:40:23.418Z,100576.27
2018-11-21T03:42:53.704Z,100574.91
2018-11-21T03:45:23.504Z,100563.77
2018-11-21T03:47:53.613Z,100580.50
2018-11-21T03:50:23.066Z,100580.03
2018-11-21T03:52:52.868Z,100588.61
2018-11-21T03:55:22.295Z,100592.47
2018-11-21T03:57:51.824Z,100611.72
2018-11-21T04:00:21.521Z,100610.89
2018-11-21T04:02:51.020Z,100629.70
2018-11-21T04:05:20.876Z,100628.39
2018-11-21T04:07:50.282Z,100644.66
2018-11-21T04:10:19.697Z,100642.06
2018-11-21T04:12:49.464Z,100624.91
2018-11-21T04:15:18.865Z,100630.05
2018-11-21T04:17:50.353Z,100641.26
2018-11-21T04:20:19.771Z,100644.26
2018-11-21T04:22:49.439Z,100648.16
2018-11-21T04:25:18.898Z,100653.30
2018-11-21T04:27:48.334Z,100656.30
2018-11-21T04:30:18.154Z,100655.53
2018-11-21T04:32:52.359Z,100655.14
2018-11-21T04:35:22.376Z,100659.42
2018-11-21T04:37:52.638Z,100658.11
2018-11-21T04:40:22.387Z,100668.40
2018-11-21T04:42:52.156Z,100660.69
2018-11-21T04:45:21.544Z,100663.66
2018-11-21T04:47:51.860Z,100664.13
2018-11-21T04:50:21.263Z,100671.47
2018-11-21T04:52:51.010Z,100671.48
2018-11-21T04:55:20.877Z,100671.94
2018-11-21T04:57:50.283Z,100675.34
2018-11-21T05:00:19.696Z,100679.20
2018-11-21T05:02:52.112Z,100676.66
2018-11-21T05:05:21.486Z,100680.13
2018-11-21T05:07:53.897Z,100692.11
2018-11-21T05:10:26.024Z,100689.95
2018-11-21T05:12:55.736Z,100683.97
2018-11-21T05:15:25.486Z,100681.86
2018-11-21T05:17:56.661Z,100677.55
2018-11-21T05:20:24.281Z,100675.88
2018-11-21T05:22:58.463Z,100675.88
2018-11-21T05:25:28.281Z,100680.62
2018-11-21T05:27:58.404Z,100682.77
2018-11-21T05:30:27.976Z,100687.91
2018-11-21T05:32:57.862Z,100697.75
2018-11-21T05:35:28.965Z,100696.48
2018-11-21T05:37:58.711Z,100702.48
2018-11-21T05:40:28.146Z,100708.05
2018-11-21T05:42:58.727Z,100705.50
2018-11-21T05:45:32.709Z,100716.62
2018-11-21T05:48:02.707Z,100719.19
2018-11-21T05:50:32.104Z,100724.73
2018-11-21T05:53:01.498Z,100723.02
2018-11-21T05:55:31.256Z,100718.27
2018-11-21T05:58:01.046Z,100719.57
2018-11-21T06:00:30.469Z,100730.28
2018-11-21T06:03:00.231Z,100721.30
2018-11-21T06:05:29.649Z,100728.57
2018-11-21T06:08:01.921Z,100734.56
2018-11-21T06:10:33.826Z,100734.15
2018-11-21T06:13:03.259Z,100732.86
2018-11-21T06:15:32.676Z,100717.84
2018-11-21T06:18:02.535Z,100715.27
2018-11-21T06:20:32.427Z,100729.83
2018-11-21T06:23:02.990Z,100729.89
2018-11-21T06:25:33.244Z,100742.31
2018-11-21T06:28:03.022Z,100741.86
2018-11-21T06:30:32.738Z,100740.16
2018-11-21T06:33:02.432Z,100734.61
2018-11-21T06:35:31.818Z,100744.01
2018-11-21T06:38:01.243Z,100744.42
2018-11-21T06:40:30.710Z,100752.13
2018-11-21T06:43:04.849Z,100755.56
2018-11-21T06:45:42.539Z,100763.28
2018-11-21T06:48:12.004Z,100769.70
2018-11-21T06:50:44.372Z,100768.86
2018-11-21T06:53:17.694Z,100768.03
2018-11-21T06:55:47.529Z,100776.58
2018-11-21T06:58:18.148Z,100783.88
2018-11-21T07:00:47.647Z,100782.59
2018-11-21T07:03:17.141Z,100803.17
2018-11-21T07:05:46.874Z,100809.59
2018-11-21T07:08:16.306Z,100813.86
2018-11-21T07:10:46.021Z,100818.55
2018-11-21T07:13:15.418Z,100824.14
2018-11-21T07:15:44.916Z,100835.25
2018-11-21T07:18:15.633Z,100837.84
2018-11-21T07:20:45.445Z,100836.13
2018-11-21T07:23:15.703Z,100842.96
2018-11-21T07:25:45.128Z,100839.52
2018-11-21T07:28:14.928Z,100846.37
2018-11-21T07:30:44.341Z,100852.38
2018-11-21T07:33:13.742Z,100859.67
2018-11-21T07:35:43.292Z,100866.51
2018-11-21T07:38:13.187Z,100877.21
2018-11-21T07:40:42.994Z,100872.48
2018-11-21T07:43:13.550Z,100855.76
2018-11-21T07:45:43.707Z,100854.86
2018-11-21T07:48:13.066Z,100857.91
2018-11-21T07:50:45.848Z,100869.46
2018-11-21T07:53:19.668Z,100868.16
2018-11-21T07:55:51.008Z,100873.70
2018-11-21T07:58:26.629Z,100869.42
2018-11-21T08:01:09.750Z,100867.23
2018-11-21T08:03:46.120Z,100871.52
2018-11-21T08:06:29.397Z,100874.09
2018-11-21T08:09:17.153Z,100877.11
2018-11-21T08:12:14.800Z,100884.80
2018-11-21T08:14:54.966Z,100881.34
2018-11-21T08:17:42.134Z,100877.44
2018-11-21T08:20:32.256Z,100879.14
2018-11-21T08:23:19.684Z,100875.72
2018-11-21T08:26:07.595Z,100894.96
2018-11-21T08:28:37.073Z,100896.22
2018-11-21T08:31:06.497Z,100908.63
2018-11-21T08:33:35.903Z,100905.16
2018-11-21T08:36:06.599Z,100910.31
2018-11-21T08:38:36.032Z,100914.11
2018-11-21T08:41:05.705Z,100911.52
2018-11-21T08:43:37.521Z,100909.77
2018-11-21T08:46:08.998Z,100914.02
2018-11-21T08:48:38.820Z,100916.09
2018-11-21T08:51:09.213Z,100911.75
2018-11-21T08:53:38.619Z,100903.55
2018-11-21T08:56:08.102Z,100901.38
2018-11-21T08:58:37.902Z,100910.35
2018-11-21T09:01:07.387Z,100912.48
2018-11-21T09:03:37.513Z,100923.53
2018-11-21T09:06:07.334Z,100921.41
2018-11-21T09:08:36.747Z,100920.09
2018-11-21T09:11:07.817Z,100920.95
2018-11-21T09:13:40.483Z,100920.91
2018-11-21T09:16:09.939Z,100925.55
2018-11-21T09:18:39.321Z,100928.13
2018-11-21T09:21:09.883Z,100934.12
2018-11-21T09:23:41.970Z,100929.30
2018-11-21T09:26:11.860Z,100917.63
2018-11-21T09:28:41.634Z,100914.13
2018-11-21T09:31:11.555Z,100931.70
2018-11-21T09:33:40.936Z,100931.65
2018-11-21T09:36:10.369Z,100935.89
2018-11-21T09:38:40.140Z,100940.16
2018-11-21T09:41:09.627Z,100941.45
2018-11-21T09:43:39.943Z,100954.27
2018-11-21T09:46:09.869Z,100951.63
2018-11-21T09:48:40.156Z,100951.53
2018-11-21T09:51:09.995Z,100957.92
2018-11-21T09:53:43.634Z,100956.56
2018-11-21T09:56:13.681Z,100956.97
2018-11-21T09:58:43.958Z,100952.06
2018-11-21T10:02:08.368Z,100955.97
2018-11-21T10:04:41.227Z,100965.34
2018-11-21T10:07:10.632Z,100966.59
2018-11-21T10:09:43.018Z,100956.63
2018-11-21T10:12:17.550Z,100967.74
2018-11-21T10:14:47.349Z,100969.39
2018-11-21T10:17:16.734Z,100968.06
2018-11-21T10:19:50.272Z,100956.47
2018-11-21T10:22:20.378Z,100952.88
2018-11-21T10:24:50.214Z,100951.13
2018-11-21T10:29:58.975Z,100955.78
2018-11-21T10:32:28.468Z,100957.77
2018-11-21T10:35:02.813Z,100960.36
2018-11-21T10:37:32.289Z,100955.31
2018-11-21T10:40:04.107Z,100976.22
2018-11-21T10:42:38.562Z,100983.85
2018-11-21T10:45:09.930Z,100983.38
2018-11-21T10:47:39.350Z,100996.66
2018-11-21T10:50:09.806Z,100995.76
2018-11-21T10:52:39.172Z,100991.02
2018-11-21T10:55:08.578Z,100983.22
2018-11-21T10:57:38.370Z,100978.91
2018-11-21T11:00:38.156Z,100988.73
2018-11-21T11:03:12.341Z,100989.12
2018-11-21T11:06:06.669Z,101001.11
2018-11-21T11:09:04.031Z,101005.41
2018-11-21T11:12:04.874Z,101009.20
2018-11-21T11:14:57.305Z,101001.84
2018-11-21T11:17:46.883Z,100994.50
2018-11-21T11:20:34.765Z,100996.91
2018-11-21T11:23:23.535Z,100998.20
2018-11-21T11:26:20.301Z,100994.70
2018-11-21T11:29:22.492Z,100975.59
2018-11-21T11:32:13.557Z,100966.34
2018-11-21T11:35:01.015Z,100972.18
2018-11-21T11:37:48.262Z,100966.09
2018-11-21T11:40:36.541Z,100972.56
2018-11-21T11:43:24.281Z,100970.75
2018-11-21T11:46:18.824Z,100974.62
2018-11-21T11:49:19.290Z,100975.05
2018-11-21T11:52:03.228Z,100977.16
2018-11-21T11:54:58.737Z,100973.08
2018-11-21T11:57:51.785Z,100970.81
2018-11-21T12:00:39.145Z,100965.57
2018-11-21T12:03:40.782Z,100973.66
2018-11-21T12:06:30.235Z,100971.84
2018-11-21T12:09:18.547Z,100968.00
2018-11-21T12:12:09.479Z,100966.86
2018-11-21T12:14:58.319Z,100970.80
2018-11-21T12:17:49.811Z,100980.73
2018-11-21T12:20:51.677Z,100977.29
2018-11-21T12:23:43.094Z,100975.87
2018-11-21T12:26:33.142Z,100982.25
2018-11-21T12:29:20.266Z,100974.16
2018-11-21T12:32:09.656Z,100982.73
2018-11-21T12:34:57.698Z,100974.97
2018-11-21T12:38:01.361Z,100980.20
2018-11-21T12:40:42.029Z,100970.26
2018-11-21T12:43:36.894Z,100981.01
2018-11-21T12:46:25.544Z,100980.20
2018-11-21T12:49:19.078Z,100979.28
2018-11-21T12:52:00.293Z,100981.16
2018-11-21T12:54:57.837Z,100979.37
2018-11-21T12:57:49.624Z,100987.85
2018-11-21T13:00:26.335Z,100981.06
2018-11-21T13:03:01.180Z,100983.06
2018-11-21T13:05:49.753Z,100979.98
2018-11-21T13:08:39.088Z,100987.00
2018-11-21T13:11:39.514Z,100986.67
2018-11-21T13:14:26.747Z,100981.05
2018-11-21T13:17:16.569Z,100965.84
2018-11-21T13:20:16.754Z,100967.56
2018-11-21T13:23:10.644Z,100972.48
2018-11-21T13:25:51.298Z,100985.22
2018-11-21T13:28:38.586Z,100982.41
2018-11-21T13:31:32.865Z,100975.17
2018-11-21T13:34:24.317Z,100979.00
2018-11-21T13:37:19.646Z,100984.23
2018-11-21T13:40:19.971Z,100990.71
2018-11-21T13:43:07.429Z,100985.53
2018-11-21T13:46:00.777Z,100986.36
2018-11-21T13:48:58.117Z,100996.76
2018-11-21T13:51:48.714Z,101006.20
2018-11-21T13:54:29.064Z,101013.17
2018-11-21T13:56:59.214Z,101011.00
2018-11-21T13:59:28.721Z,101006.59
2018-11-21T14:01:59.129Z,100997.68
2018-11-21T14:04:28.570Z,101004.63
2018-11-21T14:06:59.671Z,101016.28
2018-11-21T14:09:30.366Z,101016.72
2018-11-21T14:12:04.199Z,101013.37
2018-11-21T14:14:33.839Z,101006.23
2018-11-21T14:17:03.696Z,100999.47
2018-11-21T14:19:33.220Z,101005.89
2018-11-21T14:22:02.844Z,101010.30
2018-11-21T14:24:32.706Z,101016.00
2018-11-21T14:27:02.195Z,101023.81
2018-11-21T14:29:31.687Z,101015.70
2018-11-21T14:32:01.146Z,101006.26
2018-11-21T14:34:30.964Z,101016.23
2018-11-21T14:37:02.477Z,101009.80
2018-11-21T14:39:32.194Z,101007.78
2018-11-21T14:42:08.433Z,101022.06
2018-11-21T14:44:38.422Z,101016.14
2018-11-21T14:47:11.793Z,101011.80
2018-11-21T14:49:42.589Z,101014.95
2018-11-21T14:52:12.043Z,101012.83
2018-11-21T14:54:41.507Z,101021.92
2018-11-21T14:57:10.923Z,101021.84
2018-11-21T14:59:40.402Z,101024.08
2018-11-21T15:02:10.933Z,101029.69
2018-11-21T15:04:41.010Z,101041.36
2018-11-21T15:07:10.553Z,101044.45
2018-11-21T15:09:42.174Z,101039.41
2018-11-21T15:12:15.715Z,101045.40
2018-11-21T15:14:49.120Z,101047.52
2018-11-21T15:17:19.718Z,101042.45
2018-11-21T15:19:52.355Z,101047.67
2018-11-21T15:22:26.534Z,101046.48
2018-11-21T15:24:58.793Z,101054.20
2018-11-21T15:27:33.263Z,101056.39
2018-11-21T15:30:10.922Z,101049.07
2018-11-21T15:32:40.275Z,101046.59
2018-11-21T15:35:13.819Z,101051.77
2018-11-21T15:37:44.894Z,101055.64
2018-11-21T15:40:19.760Z,101043.25
2018-11-21T15:42:52.668Z,101055.41
2018-11-21T15:45:27.616Z,101057.14
2018-11-21T15:47:59.692Z,101059.75
2018-11-21T15:50:29.796Z,101064.45
2018-11-21T15:52:59.250Z,101070.92
2018-11-21T15:55:31.141Z,101072.67
2018-11-21T15:58:01.001Z,101073.60
2018-11-21T16:00:33.444Z,101073.20
2018-11-21T16:03:05.138Z,101079.69
2018-11-21T16:05:34.734Z,101079.27
2018-11-21T16:08:04.295Z,101091.29
2018-11-21T16:10:44.662Z,101093.94
2018-11-21T16:13:14.076Z,101097.41
2018-11-21T16:15:49.155Z,101092.27
2018-11-21T16:18:20.065Z,101097.03
2018-11-21T16:20:49.528Z,101099.25
2018-11-21T16:23:21.995Z,101100.94
2018-11-21T16:25:51.426Z,101098.35
2018-11-21T16:28:24.558Z,101101.86
2018-11-21T16:30:57.705Z,101101.48
2018-11-21T16:33:27.177Z,101095.91
2018-11-21T16:35:56.617Z,101093.30
2018-11-21T16:38:30.548Z,101100.21
2018-11-21T16:41:01.205Z,101108.02
2018-11-21T16:43:32.939Z,101107.17
2018-11-21T16:46:02.334Z,101113.20
2018-11-21T16:48:32.694Z,101118.39
2018-11-21T16:51:05.063Z,101117.98
2018-11-21T16:53:35.138Z,101122.70
2018-11-21T16:56:04.419Z,101121.44
2018-11-21T16:58:34.240Z,101124.44
2018-11-21T17:01:04.013Z,101131.33
2018-11-21T17:03:36.903Z,101138.23
2018-11-21T17:06:07.996Z,101141.67
2018-11-21T17:08:37.615Z,101141.66
2018-11-21T17:11:07.134Z,101139.05
2018-11-21T17:13:38.015Z,101137.76
2018-11-21T17:16:07.556Z,101135.63
2018-11-21T17:18:38.923Z,101142.39
2018-11-21T17:21:08.480Z,101146.64
2018-11-21T17:23:37.961Z,101139.77
2018-11-21T17:26:12.138Z,101143.15
2018-11-21T17:28:42.007Z,101140.57
2018-11-21T17:31:11.526Z,101139.28
2018-11-21T17:33:40.962Z,101134.08
2018-11-21T17:36:10.756Z,101140.95
2018-11-21T17:38:40.206Z,101142.64
2018-11-21T17:41:10.918Z,101149.50
2018-11-21T17:43:40.356Z,101137.47
2018-11-21T17:46:10.441Z,101142.16
2018-11-21T17:48:39.966Z,101143.02
2018-11-21T17:51:09.438Z,101143.47
2018-11-21T17:53:38.880Z,101145.65
2018-11-21T17:56:10.314Z,101146.48
2018-11-21T17:58:39.836Z,101153.32
2018-11-21T18:01:09.427Z,101151.17
2018-11-21T18:03:38.864Z,101155.47
2018-11-21T18:06:10.539Z,101161.91
2018-11-21T18:08:47.445Z,101158.46
2018-11-21T18:11:18.902Z,101148.95
2018-11-21T18:13:51.467Z,101157.58
2018-11-21T18:16:20.856Z,101166.13
2018-11-21T18:18:50.315Z,101167.82
2018-11-21T18:21:20.157Z,101173.42
2018-11-21T18:23:51.606Z,101176.44
2018-11-21T18:26:21.324Z,101169.57
2018-11-21T18:28:50.758Z,101178.10
2018-11-21T18:31:20.232Z,101180.23
2018-11-21T18:33:50.063Z,101181.46
2018-11-21T18:36:21.181Z,101180.23
2018-11-21T18:38:50.589Z,101186.26
2018-11-21T18:41:20.224Z,101191.80
2018-11-21T18:43:51.115Z,101191.34
2018-11-21T18:46:23.454Z,101192.59
2018-11-21T18:48:52.961Z,101186.56
2018-11-21T18:51:24.823Z,101188.23
2018-11-21T18:53:57.807Z,101194.23
2018-11-21T18:56:45.512Z,101197.22
2018-11-21T18:59:19.613Z,101198.97
2018-11-21T19:01:49.931Z,101205.00
2018-11-21T19:04:20.141Z,101201.16
2018-11-21T19:06:50.054Z,101201.62
2018-11-21T19:09:19.956Z,101201.19
2018-11-21T19:11:49.810Z,101199.86
2018-11-21T19:14:19.639Z,101203.34
2018-11-21T19:16:50.286Z,101200.73
2018-11-21T19:19:19.613Z,101195.16
2018-11-21T19:21:54.522Z,101196.42
2018-11-21T19:24:24.301Z,101208.45
2018-11-21T19:26:58.673Z,101199.44
2018-11-21T19:29:28.963Z,101203.72
2018-11-21T19:31:58.818Z,101203.28
2018-11-21T19:34:31.122Z,101215.31
2018-11-21T19:37:00.983Z,101208.05
2018-11-21T19:39:35.466Z,101207.63
2018-11-21T19:42:07.111Z,101205.95
2018-11-21T19:44:40.504Z,101207.68
2018-11-21T19:47:14.128Z,101211.58
2018-11-21T19:49:45.339Z,101206.08
2018-11-21T19:52:17.830Z,101216.36
2018-11-21T19:54:50.645Z,101214.31
2018-11-21T19:57:41.090Z,101214.74
2018-11-21T20:00:17.708Z,101221.20
2018-11-21T20:02:48.451Z,101215.58
2018-11-21T20:05:21.690Z,101222.95
2018-11-21T20:07:51.740Z,101217.73
2018-11-21T20:10:24.479Z,101224.27
2018-11-21T20:12:54.556Z,101217.34
2018-11-21T20:15:33.408Z,101223.35
2018-11-21T20:18:04.055Z,101222.88
2018-11-21T20:20:34.041Z,101224.16
2018-11-21T20:23:06.551Z,101228.95
2018-11-21T20:25:37.674Z,101227.23
2018-11-21T20:28:08.296Z,101232.00
2018-11-21T20:30:43.255Z,101232.83
2018-11-21T20:33:15.957Z,101234.55
2018-11-21T20:35:47.485Z,101228.14
2018-11-21T20:38:20.359Z,101234.58
2018-11-21T20:40:53.943Z,101235.81
2018-11-21T20:43:24.943Z,101234.98
2018-11-21T20:45:57.172Z,101234.53
2018-11-21T20:48:28.484Z,101230.19
2018-11-21T20:51:05.977Z,101233.18
2018-11-21T20:53:35.491Z,101231.03
2018-11-21T20:56:06.924Z,101236.17
2018-11-21T20:58:38.630Z,101238.33
2018-11-21T21:01:18.222Z,101237.03
2018-11-21T21:03:54.306Z,101231.89
2018-11-21T21:06:28.154Z,101231.89
2018-11-21T21:08:57.680Z,101231.89
2018-11-21T21:11:27.519Z,101229.73
2018-11-21T21:13:56.965Z,101232.78
2018-11-21T21:16:27.750Z,101232.31
2018-11-21T21:18:57.563Z,101226.34
2018-11-21T21:21:27.390Z,101227.15
2018-11-21T21:24:08.159Z,101232.77
2018-11-21T21:26:39.053Z,101229.33
2018-11-21T21:29:08.522Z,101230.27
2018-11-21T21:31:39.396Z,101240.16
2018-11-21T21:34:08.927Z,101230.30
2018-11-21T21:36:38.436Z,101234.55
2018-11-21T21:39:12.140Z,101240.98
2018-11-21T21:41:41.971Z,101234.63
2018-11-21T21:44:13.740Z,101235.95
2018-11-21T21:46:44.682Z,101230.78
2018-11-21T21:49:14.328Z,101232.94
2018-11-21T21:54:26.903Z,101241.52
2018-11-21T21:56:56.352Z,101242.43
2018-11-21T21:59:25.920Z,101241.52
2018-11-21T22:01:55.381Z,101245.83
2018-11-21T22:04:24.827Z,101248.44
2018-11-21T22:06:54.380Z,101250.11
2018-11-21T22:09:24.194Z,101246.28
2018-11-21T22:11:53.642Z,101248.44
2018-11-21T22:14:28.102Z,101249.75
2018-11-21T22:16:57.529Z,101248.44
2018-11-21T22:19:27.277Z,101241.97
2018-11-21T22:21:56.771Z,101248.86
2018-11-21T22:24:26.605Z,101249.33
2018-11-21T22:26:56.260Z,101252.72
2018-11-21T22:29:25.717Z,101255.38
2018-11-21T22:31:55.129Z,101257.50
2018-11-21T22:34:24.717Z,101258.77
2018-11-21T22:36:54.153Z,101258.75
2018-11-21T22:39:23.684Z,101254.94
2018-11-21T22:41:53.328Z,101256.20
2018-11-21T22:44:22.793Z,101255.78
2018-11-21T22:46:57.965Z,101257.50
2018-11-21T22:49:39.497Z,101259.66
2018-11-21T22:52:09.001Z,101252.77
2018-11-21T22:54:38.458Z,101252.41
2018-11-21T22:57:07.865Z,101254.51
2018-11-21T22:59:37.330Z,101249.77
2018-11-21T23:02:06.835Z,101251.03
2018-11-21T23:04:36.243Z,101255.38
2018-11-21T23:07:05.777Z,101256.61
2018-11-21T23:09:35.250Z,101259.64
2018-11-21T23:12:04.707Z,101263.03
2018-11-21T23:14:34.506Z,101260.04
2018-11-21T23:17:03.902Z,101259.22
2018-11-21T23:19:33.428Z,101259.67
2018-11-21T23:22:02.813Z,101266.55
2018-11-21T23:24:32.350Z,101260.97
2018-11-21T23:27:01.782Z,101260.10
2018-11-21T23:29:31.314Z,101262.71
2018-11-21T23:32:00.735Z,101258.81
2018-11-21T23:34:30.259Z,101259.25
2018-11-21T23:36:59.682Z,101261.45
2018-11-21T23:39:29.134Z,101259.72
2018-11-21T23:41:59.669Z,101257.97
2018-11-21T23:44:29.114Z,101258.89
2018-11-21T23:46:58.668Z,101265.31
2018-11-21T23:49:28.109Z,101267.45
2018-11-21T23:51:57.617Z,101263.58
2018-11-21T23:54:33.382Z,101264.03
2018-11-21T23:57:15.965Z,101262.77
2018-11-21T23:59:32.263Z,101263.17
